Time;durP1;ratioP1;P1;durP2;ratioP2;P2;SDS_P1;SDS_P2;PMS_P1;PMS_P2;Temp;Humidity;BMP_temperature;BMP_pressure;BME280_temperature;BME280_humidity;BME280_pressure;Samples;Min_cycle;Max_cycle;Signal;HPM_P1;HPM_P2
2022/10/02 00:00:18;;;;;;;3.57;2.60;;;12.20;99.90;;;;;;5069541;28;20937;-83
2022/10/02 00:02:55;;;;;;;3.73;2.40;;;12.20;99.90;;;;;;5069812;28;20255;-83
2022/10/02 00:05:36;;;;;;;3.10;2.80;;;12.20;99.90;;;;;;5069645;28;20182;-82
2022/10/02 00:08:15;;;;;;;4.93;2.30;;;12.20;99.90;;;;;;5069532;28;20166;-82
2022/10/02 00:10:47;;;;;;;2.40;2.20;;;12.10;99.90;;;;;;5069353;28;20171;-82
2022/10/02 00:13:27;;;;;;;2.40;1.90;;;12.00;99.90;;;;;;5067901;28;20280;-83
2022/10/02 00:15:53;;;;;;;4.00;2.07;;;11.90;99.90;;;;;;5069214;28;20186;-82
2022/10/02 00:18:30;;;;;;;2.80;2.67;;;11.90;99.90;;;;;;5067769;28;20658;-82
2022/10/02 00:21:27;;;;;;;2.93;2.60;;;11.90;99.90;;;;;;5068051;28;20701;-82
2022/10/02 00:23:59;;;;;;;3.97;3.00;;;11.90;99.90;;;;;;5069269;28;20210;-81
2022/10/02 00:26:32;;;;;;;4.03;2.80;;;11.90;99.90;;;;;;5069582;28;20177;-83
2022/10/02 00:29:23;;;;;;;4.67;2.83;;;11.90;99.90;;;;;;5067753;28;20209;-83
2022/10/02 00:32:09;;;;;;;4.20;2.83;;;11.90;99.90;;;;;;5068956;28;20725;-82
2022/10/02 00:35:26;;;;;;;4.03;2.87;;;11.80;99.90;;;;;;5071839;28;20160;-83
2022/10/02 00:38:04;;;;;;;3.20;3.00;;;11.70;99.90;;;;;;5050046;28;20189;-81
2022/10/02 00:40:39;;;;;;;2.90;2.70;;;11.80;99.90;;;;;;5074940;28;20264;-83
2022/10/02 00:43:27;;;;;;;2.57;2.37;;;11.80;99.90;;;;;;5073426;28;20257;-81
2022/10/02 00:46:19;;;;;;;2.53;2.43;;;11.70;99.90;;;;;;5073253;28;20164;-82
2022/10/02 00:49:14;;;;;;;3.07;2.80;;;11.70;99.90;;;;;;5073804;28;20273;-82
2022/10/02 00:52:04;;;;;;;2.40;2.30;;;11.70;99.90;;;;;;5019772;28;20235;-82
2022/10/02 00:54:52;;;;;;;2.23;2.10;;;11.80;99.90;;;;;;5072907;28;20186;-82
2022/10/02 00:57:37;;;;;;;2.83;1.93;;;11.80;99.90;;;;;;5085296;28;20190;-82
2022/10/02 01:00:12;;;;;;;2.30;2.20;;;11.90;99.90;;;;;;5098195;28;20246;-83
2022/10/02 01:02:42;;;;;;;2.60;2.33;;;11.90;99.90;;;;;;5075198;28;20193;-81
2022/10/02 01:05:08;;;;;;;2.43;2.13;;;11.90;99.90;;;;;;5081161;28;20205;-82
2022/10/02 01:07:42;;;;;;;2.50;2.30;;;11.90;99.90;;;;;;5074276;28;20196;-84
2022/10/02 01:10:13;;;;;;;2.47;1.70;;;11.90;99.90;;;;;;5073015;28;21002;-82
2022/10/02 01:12:39;;;;;;;2.33;1.80;;;11.80;99.90;;;;;;5072584;28;20211;-83
2022/10/02 01:15:17;;;;;;;1.90;1.80;;;11.90;99.90;;;;;;5072464;28;20182;-82
2022/10/02 01:17:45;;;;;;;1.80;1.70;;;11.80;99.90;;;;;;5072226;28;20178;-83
2022/10/02 01:20:18;;;;;;;2.60;1.70;;;11.80;99.90;;;;;;5072299;28;20534;-83
2022/10/02 01:22:57;;;;;;;2.10;1.93;;;11.70;99.90;;;;;;5072385;28;20238;-83
2022/10/02 01:25:23;;;;;;;1.93;1.83;;;11.60;99.90;;;;;;5072408;28;20264;-83
2022/10/02 01:27:51;;;;;;;1.90;1.80;;;11.60;99.90;;;;;;5081816;28;20166;-83
2022/10/02 01:30:19;;;;;;;1.93;1.90;;;11.70;99.90;;;;;;5098598;28;20166;-83
2022/10/02 01:33:02;;;;;;;4.03;1.90;;;11.60;99.90;;;;;;5087797;28;20288;-83
2022/10/02 01:35:31;;;;;;;2.07;1.90;;;11.60;99.90;;;;;;5072427;28;20890;-83
2022/10/02 01:37:59;;;;;;;2.23;1.83;;;11.50;99.90;;;;;;5072462;28;20190;-82
2022/10/02 01:40:31;;;;;;;4.10;1.70;;;11.40;99.90;;;;;;5071902;28;20181;-82
2022/10/02 01:43:01;;;;;;;1.23;1.13;;;11.40;99.90;;;;;;5071863;28;20187;-83
2022/10/02 01:45:41;;;;;;;2.00;1.70;;;11.30;99.90;;;;;;5070148;28;20277;-83
2022/10/02 01:48:18;;;;;;;1.70;1.60;;;11.40;99.90;;;;;;5072160;28;20245;-82
2022/10/02 01:51:07;;;;;;;1.20;1.20;;;11.50;99.90;;;;;;5076696;28;20224;-82
2022/10/02 01:53:49;;;;;;;3.10;1.60;;;11.50;99.90;;;;;;5091657;28;20172;-83
2022/10/02 01:56:24;;;;;;;2.50;1.53;;;11.50;99.90;;;;;;5091751;28;20163;-84
2022/10/02 01:59:28;;;;;;;1.43;1.43;;;11.50;99.90;;;;;;5091659;28;20506;-83
2022/10/02 02:02:02;;;;;;;1.73;1.47;;;11.40;99.90;;;;;;5012891;28;20619;-83
2022/10/02 02:04:49;;;;;;;2.00;1.90;;;11.40;99.90;;;;;;5033499;28;20179;-83
2022/10/02 02:07:34;;;;;;;1.63;1.63;;;11.50;99.90;;;;;;5031131;28;20183;-84
2022/10/02 02:10:17;;;;;;;1.70;1.70;;;11.40;99.90;;;;;;5028885;28;20309;-84
2022/10/02 02:13:13;;;;;;;3.43;1.80;;;11.40;99.90;;;;;;5012181;28;20228;-83
2022/10/02 02:15:58;;;;;;;1.77;1.40;;;11.40;99.90;;;;;;5007671;28;20249;-84
2022/10/02 02:18:34;;;;;;;1.70;1.60;;;11.40;99.90;;;;;;5033325;28;20242;-83
2022/10/02 02:21:12;;;;;;;1.80;1.70;;;11.30;99.90;;;;;;5036665;28;20160;-84
2022/10/02 02:23:42;;;;;;;1.80;1.70;;;11.40;99.90;;;;;;5031229;28;20180;-83
2022/10/02 02:26:11;;;;;;;1.80;1.70;;;11.30;99.90;;;;;;5013294;28;20324;-82
2022/10/02 02:28:42;;;;;;;4.17;1.80;;;11.40;99.90;;;;;;5030515;28;20205;-82
2022/10/02 02:31:13;;;;;;;1.87;1.77;;;11.40;99.90;;;;;;5031200;28;20182;-82
2022/10/02 02:33:54;;;;;;;2.30;1.67;;;11.40;99.90;;;;;;5092637;28;20205;-83
2022/10/02 02:36:23;;;;;;;1.90;1.57;;;11.30;99.90;;;;;;5092777;28;20196;-83
2022/10/02 02:38:57;;;;;;;1.73;1.63;;;11.30;99.90;;;;;;5091026;28;20181;-83
2022/10/02 02:41:30;;;;;;;2.10;1.50;;;11.20;99.90;;;;;;5091030;28;20169;-83
2022/10/02 02:44:09;;;;;;;3.13;1.47;;;11.20;99.90;;;;;;5092063;28;20168;-84
2022/10/02 02:47:02;;;;;;;1.70;1.60;;;11.30;99.90;;;;;;5090911;28;20153;-84
2022/10/02 02:49:50;;;;;;;1.80;1.70;;;11.30;99.90;;;;;;5096519;28;20188;-82
2022/10/02 02:52:25;;;;;;;2.07;1.60;;;11.20;99.90;;;;;;5094346;28;20233;-83
2022/10/02 02:55:08;;;;;;;1.50;1.40;;;11.20;99.90;;;;;;5091404;28;20519;-83
2022/10/02 02:57:45;;;;;;;2.30;1.40;;;11.30;99.90;;;;;;5090387;28;20166;-83
2022/10/02 03:00:14;;;;;;;1.50;1.50;;;11.20;99.90;;;;;;5073489;28;20177;-83
2022/10/02 03:02:40;;;;;;;1.37;1.10;;;11.30;99.90;;;;;;5090867;28;20181;-83
2022/10/02 03:05:16;;;;;;;1.70;0.90;;;11.30;99.90;;;;;;5090975;28;20183;-84
2022/10/02 03:07:50;;;;;;;0.93;0.93;;;11.30;99.90;;;;;;5072510;28;20176;-83
2022/10/02 03:10:24;;;;;;;1.37;1.10;;;11.30;99.90;;;;;;5090890;28;20176;-83
2022/10/02 03:13:01;;;;;;;1.10;1.00;;;11.30;99.90;;;;;;5106561;28;20268;-82
2022/10/02 03:15:43;;;;;;;1.30;1.20;;;11.30;99.90;;;;;;5114893;28;20157;-83
2022/10/02 03:18:32;;;;;;;2.97;1.17;;;11.30;99.90;;;;;;5103607;28;20173;-84
2022/10/02 03:21:16;;;;;;;1.63;1.33;;;11.30;99.90;;;;;;5062731;28;20189;-83
2022/10/02 03:23:50;;;;;;;0.90;0.90;;;11.30;99.90;;;;;;5089973;28;20173;-83
2022/10/02 03:26:25;;;;;;;1.83;1.73;;;11.30;99.90;;;;;;5090052;28;20567;-84
2022/10/02 03:28:55;;;;;;;2.87;1.87;;;11.40;99.90;;;;;;5089925;28;20700;-83
2022/10/02 03:31:22;;;;;;;3.77;1.30;;;11.30;99.90;;;;;;5089852;28;20549;-84
2022/10/02 03:33:49;;;;;;;3.37;2.30;;;11.40;99.90;;;;;;5071508;28;21075;-84
2022/10/02 03:36:20;;;;;;;3.30;2.40;;;11.40;99.90;;;;;;5089976;28;20639;-84
2022/10/02 03:38:47;;;;;;;1.80;1.70;;;11.40;99.90;;;;;;5090068;28;20580;-84
2022/10/02 03:41:13;;;;;;;2.60;1.50;;;11.40;99.90;;;;;;5089786;28;20176;-84
2022/10/02 03:43:38;;;;;;;1.43;1.33;;;11.30;99.90;;;;;;5089919;28;20778;-84
2022/10/02 03:46:04;;;;;;;1.60;1.30;;;11.30;99.90;;;;;;5090107;28;20186;-84
2022/10/02 03:48:30;;;;;;;1.50;1.30;;;11.20;99.90;;;;;;5089876;28;20187;-83
2022/10/02 03:50:57;;;;;;;1.30;1.20;;;11.30;99.90;;;;;;5071726;28;20233;-83
2022/10/02 03:53:33;;;;;;;1.63;1.20;;;11.20;99.90;;;;;;5071972;28;20180;-83
2022/10/02 03:56:40;;;;;;;1.63;1.20;;;11.20;99.90;;;;;;5073025;28;20188;-83
2022/10/02 03:59:15;;;;;;;1.20;1.20;;;11.20;99.90;;;;;;5085271;28;20236;-82
2022/10/02 04:01:47;;;;;;;2.10;1.43;;;11.20;99.90;;;;;;5094330;28;20175;-81
2022/10/02 04:04:24;;;;;;;2.70;1.43;;;11.10;99.90;;;;;;5089800;28;20204;-82
2022/10/02 04:07:00;;;;;;;1.63;1.50;;;11.10;99.90;;;;;;5109920;28;20179;-84
2022/10/02 04:09:41;;;;;;;2.30;1.67;;;11.10;99.90;;;;;;5095819;28;20167;-83
2022/10/02 04:12:19;;;;;;;2.03;1.63;;;11.00;99.90;;;;;;5094556;28;20192;-84
2022/10/02 04:14:56;;;;;;;1.67;1.57;;;11.00;99.90;;;;;;5094392;28;20161;-82
2022/10/02 04:17:34;;;;;;;1.40;1.40;;;10.90;99.90;;;;;;5093751;28;20237;-82
2022/10/02 04:20:24;;;;;;;3.73;1.40;;;11.00;99.90;;;;;;5095562;28;20157;-82
2022/10/02 04:23:01;;;;;;;1.80;1.70;;;11.00;99.90;;;;;;5082168;28;20195;-82
2022/10/02 04:25:35;;;;;;;2.73;1.50;;;11.00;99.90;;;;;;5075362;28;20296;-82
2022/10/02 04:28:06;;;;;;;1.20;1.20;;;11.00;99.90;;;;;;5075083;28;20178;-83
2022/10/02 04:30:32;;;;;;;1.20;1.10;;;10.90;99.90;;;;;;5093543;28;20165;-83
2022/10/02 04:33:13;;;;;;;3.80;1.17;;;10.90;99.90;;;;;;5093266;28;20221;-83
2022/10/02 04:36:20;;;;;;;2.03;1.10;;;10.90;99.90;;;;;;5093483;28;20678;-82
2022/10/02 04:39:20;;;;;;;1.40;1.00;;;10.90;99.90;;;;;;5085221;28;20185;-82
2022/10/02 04:42:05;;;;;;;1.03;1.00;;;10.80;99.90;;;;;;5093704;28;20688;-82
2022/10/02 04:44:43;;;;;;;1.43;1.30;;;10.90;99.90;;;;;;5093362;28;20173;-83
2022/10/02 04:47:47;;;;;;;1.83;1.23;;;10.80;99.90;;;;;;5095852;28;20174;-83
2022/10/02 04:50:36;;;;;;;1.40;1.30;;;10.80;99.90;;;;;;5092975;28;20170;-82
2022/10/02 04:53:11;;;;;;;1.43;1.33;;;10.80;99.90;;;;;;5093147;28;20199;-82
2022/10/02 04:56:03;;;;;;;1.97;1.77;;;10.70;99.90;;;;;;5104538;28;20245;-82
2022/10/02 04:58:41;;;;;;;1.50;1.40;;;10.70;99.90;;;;;;5118271;28;20161;-82
2022/10/02 05:01:35;;;;;;;4.53;1.47;;;10.70;99.90;;;;;;5107790;28;20185;-83
2022/10/02 05:04:29;;;;;;;2.10;1.60;;;10.70;99.90;;;;;;5110010;28;20159;-82
2022/10/02 05:07:22;;;;;;;1.87;1.77;;;10.60;99.90;;;;;;5078438;28;20667;-83
2022/10/02 05:10:00;;;;;;;1.70;1.60;;;10.60;99.90;;;;;;5093173;28;20167;-83
2022/10/02 05:12:48;;;;;;;1.50;1.50;;;10.60;99.90;;;;;;5092868;28;20195;-82
2022/10/02 05:15:33;;;;;;;1.77;1.67;;;10.60;99.90;;;;;;5093269;28;20188;-82
2022/10/02 05:18:22;;;;;;;1.30;1.17;;;10.50;99.90;;;;;;5092529;28;20166;-82
2022/10/02 05:21:29;;;;;;;1.20;1.20;;;10.40;99.90;;;;;;5092101;28;20176;-82
2022/10/02 05:24:01;;;;;;;1.73;1.30;;;10.40;99.90;;;;;;5061943;28;20250;-83
2022/10/02 05:27:24;;;;;;;2.97;1.13;;;10.40;99.90;;;;;;5092720;28;20753;-82
2022/10/02 05:30:12;;;;;;;2.40;1.40;;;10.30;99.90;;;;;;5030803;28;20181;-82
2022/10/02 05:32:53;;;;;;;1.67;1.23;;;10.40;99.90;;;;;;5030914;28;20743;-82
2022/10/02 05:35:40;;;;;;;3.90;1.50;;;10.50;99.90;;;;;;5031392;28;20222;-82
2022/10/02 05:38:31;;;;;;;1.23;1.23;;;10.50;99.90;;;;;;5055939;28;20173;-82
2022/10/02 05:41:31;;;;;;;1.67;1.60;;;10.50;99.90;;;;;;5045067;28;20186;-81
2022/10/02 05:44:08;;;;;;;1.60;1.50;;;10.50;99.90;;;;;;5027278;28;20319;-82
2022/10/02 05:46:40;;;;;;;2.07;1.60;;;10.50;99.90;;;;;;5029356;28;20193;-82
2022/10/02 05:49:21;;;;;;;1.20;1.20;;;10.50;99.90;;;;;;5029307;28;20178;-82
2022/10/02 05:52:06;;;;;;;1.87;1.50;;;10.50;99.90;;;;;;5029062;28;20300;-82
2022/10/02 05:54:54;;;;;;;4.07;1.60;;;10.60;99.90;;;;;;5029027;28;20194;-81
2022/10/02 05:57:31;;;;;;;1.43;1.40;;;10.70;99.90;;;;;;5029004;28;20184;-81
2022/10/02 06:00:34;;;;;;;2.07;1.90;;;10.70;99.90;;;;;;5043398;28;20181;-81
2022/10/02 06:03:30;;;;;;;2.40;2.20;;;10.70;99.90;;;;;;5073397;28;20167;-81
2022/10/02 06:06:06;;;;;;;3.80;3.30;;;10.80;99.90;;;;;;5091687;28;20664;-81
2022/10/02 06:08:35;;;;;;;6.37;4.37;;;10.60;99.90;;;;;;5091334;28;20299;-82
2022/10/02 06:11:09;;;;;;;4.57;4.00;;;10.80;99.90;;;;;;5091249;28;20177;-81
2022/10/02 06:13:45;;;;;;;5.93;3.30;;;10.80;99.90;;;;;;5091906;28;20228;-83
2022/10/02 06:16:45;;;;;;;4.40;3.10;;;10.90;99.90;;;;;;5092778;28;20295;-83
2022/10/02 06:19:18;;;;;;;1.90;1.50;;;10.90;99.90;;;;;;5075907;28;20227;-81
2022/10/02 06:21:49;;;;;;;6.60;2.20;;;11.00;99.90;;;;;;5114765;28;20256;-82
2022/10/02 06:24:42;;;;;;;1.73;1.63;;;11.00;99.90;;;;;;5113568;28;20164;-82
2022/10/02 06:27:37;;;;;;;1.47;1.47;;;11.00;99.90;;;;;;5112064;28;20558;-82
2022/10/02 06:30:08;;;;;;;1.87;1.77;;;11.20;99.90;;;;;;5059333;28;20537;-82
2022/10/02 06:32:47;;;;;;;3.83;3.33;;;11.30;99.90;;;;;;5110821;28;20917;-83
2022/10/02 06:35:17;;;;;;;3.40;3.10;;;11.30;99.90;;;;;;5111982;28;20172;-83
2022/10/02 06:37:55;;;;;;;7.37;6.77;;;11.50;99.90;;;;;;5112154;28;20179;-82
2022/10/02 06:40:50;;;;;;;7.37;5.53;;;11.60;99.90;;;;;;5122101;28;20173;-82
2022/10/02 06:43:28;;;;;;;5.63;3.80;;;11.70;99.90;;;;;;5131386;28;20213;-83
2022/10/02 06:46:02;;;;;;;3.03;2.37;;;11.90;99.90;;;;;;5100230;28;20184;-83
2022/10/02 06:48:39;;;;;;;2.00;1.90;;;12.10;99.90;;;;;;5112066;28;20167;-83
2022/10/02 06:51:08;;;;;;;2.23;2.03;;;12.10;99.90;;;;;;5112381;28;20262;-83
2022/10/02 06:53:56;;;;;;;2.40;2.20;;;12.20;99.90;;;;;;5113776;28;20591;-83
2022/10/02 06:56:21;;;;;;;2.10;1.90;;;12.20;99.90;;;;;;5118537;28;20230;-83
2022/10/02 06:58:57;;;;;;;3.27;2.17;;;12.20;99.90;;;;;;5117279;28;20643;-83
2022/10/02 07:02:05;;;;;;;4.70;1.80;;;12.30;99.90;;;;;;5094611;28;20177;-83
2022/10/02 07:04:35;;;;;;;5.50;2.57;;;12.40;99.90;;;;;;5101577;28;20645;-83
2022/10/02 07:07:01;;;;;;;2.93;2.27;;;12.50;99.90;;;;;;5095674;28;20180;-82
2022/10/02 07:09:39;;;;;;;2.03;1.93;;;12.60;99.90;;;;;;5114048;28;20184;-82
2022/10/02 07:12:29;;;;;;;2.90;1.90;;;12.70;99.90;;;;;;5123918;28;20798;-83
2022/10/02 07:15:21;;;;;;;3.00;2.00;;;12.90;99.90;;;;;;5113730;28;20167;-82
2022/10/02 07:18:35;;;;;;;1.90;1.80;;;13.00;99.90;;;;;;5071678;28;20699;-82
2022/10/02 07:21:03;;;;;;;19.57;3.50;;;13.30;99.90;;;;;;5037322;28;20191;-83
2022/10/02 07:23:41;;;;;;;3.70;2.17;;;13.50;99.90;;;;;;5073630;28;20176;-83
2022/10/02 07:26:40;;;;;;;3.63;1.70;;;13.70;99.90;;;;;;5092857;28;20250;-84
2022/10/02 07:29:44;;;;;;;3.70;2.20;;;13.80;99.90;;;;;;5091748;28;20167;-83
2022/10/02 07:32:40;;;;;;;2.23;1.87;;;14.00;99.90;;;;;;5078790;28;20988;-81
2022/10/02 07:35:27;;;;;;;1.90;1.80;;;14.10;99.90;;;;;;5091798;28;20266;-83
2022/10/02 07:38:05;;;;;;;2.30;2.10;;;14.10;99.90;;;;;;5091014;28;20163;-82
2022/10/02 07:41:15;;;;;;;2.60;2.40;;;14.10;99.90;;;;;;5091562;28;20174;-83
2022/10/02 07:44:09;;;;;;;1.70;1.60;;;14.20;99.90;;;;;;5091536;28;20182;-81
2022/10/02 07:46:40;;;;;;;5.63;5.13;;;14.30;99.90;;;;;;5073560;28;20259;-82
2022/10/02 07:49:35;;;;;;;3.90;3.67;;;14.40;99.90;;;;;;5091419;28;20167;-82
2022/10/02 07:52:25;;;;;;;3.70;2.53;;;14.60;99.90;;;;;;5090841;28;20235;-83
2022/10/02 07:55:00;;;;;;;2.43;2.00;;;;;;;;;;5091211;28;20197;-84
2022/10/02 07:57:51;;;;;;;5.33;2.10;;;14.60;99.90;;;;;;5073744;28;20183;-83
2022/10/02 08:00:18;;;;;;;1.60;1.60;;;14.60;99.90;;;;;;5090685;28;20173;-85
2022/10/02 08:03:11;;;;;;;3.60;1.80;;;14.60;99.90;;;;;;5090810;28;20530;-85
2022/10/02 08:05:54;;;;;;;1.37;1.27;;;14.60;99.90;;;;;;5091470;28;20163;-80
2022/10/02 08:08:23;;;;;;;4.63;1.50;;;14.60;99.90;;;;;;5090252;28;20314;-82
2022/10/02 08:10:55;;;;;;;2.30;1.60;;;14.60;99.90;;;;;;5090032;28;20220;-82
2022/10/02 08:13:49;;;;;;;3.33;1.20;;;14.60;99.90;;;;;;5090429;28;20206;-81
2022/10/02 08:16:18;;;;;;;1.50;1.40;;;14.70;99.90;;;;;;5091230;28;20221;-83
2022/10/02 08:18:59;;;;;;;1.57;1.33;;;14.80;99.90;;;;;;5090442;28;20638;-82
2022/10/02 08:21:25;;;;;;;1.20;1.20;;;14.80;99.90;;;;;;5090450;28;20182;-82
2022/10/02 08:24:09;;;;;;;2.30;1.40;;;14.90;99.90;;;;;;5090193;28;20179;-82
2022/10/02 08:26:46;;;;;;;3.17;1.30;;;15.00;99.90;;;;;;5090154;28;20161;-82
2022/10/02 08:29:19;;;;;;;1.30;1.10;;;15.10;99.90;;;;;;5091596;28;20170;-81
2022/10/02 08:31:45;;;;;;;1.40;1.40;;;15.20;99.90;;;;;;5118831;28;20215;-82
2022/10/02 08:34:16;;;;;;;0.70;0.70;;;15.30;99.90;;;;;;5094895;28;20154;-83
2022/10/02 08:36:54;;;;;;;1.33;0.90;;;15.30;99.90;;;;;;5100630;28;20222;-83
2022/10/02 08:39:40;;;;;;;0.90;0.90;;;15.40;99.90;;;;;;5094263;28;20532;-82
2022/10/02 08:42:12;;;;;;;1.03;0.90;;;15.40;99.90;;;;;;5090918;28;20166;-83
2022/10/02 08:44:48;;;;;;;1.40;1.40;;;15.50;99.90;;;;;;5090427;28;20163;-83
2022/10/02 08:47:14;;;;;;;0.93;0.93;;;15.60;99.90;;;;;;5071752;28;20907;-83
2022/10/02 08:50:18;;;;;;;1.33;1.00;;;15.70;99.90;;;;;;5072294;28;20181;-83
2022/10/02 08:53:09;;;;;;;1.30;1.20;;;15.90;99.90;;;;;;5107053;28;20220;-82
2022/10/02 08:56:12;;;;;;;2.03;1.40;;;16.10;99.90;;;;;;5088501;28;20781;-83
2022/10/02 08:58:53;;;;;;;0.93;0.93;;;16.40;99.90;;;;;;5110278;28;20632;-83
2022/10/02 09:01:59;;;;;;;1.53;1.17;;;16.90;99.90;;;;;;5094429;28;20174;-83
2022/10/02 09:04:28;;;;;;;1.60;1.10;;;17.20;99.90;;;;;;5093516;28;20165;-83
2022/10/02 09:07:12;;;;;;;0.80;0.80;;;17.50;99.90;;;;;;5093596;28;20502;-83
2022/10/02 09:09:53;;;;;;;0.97;0.97;;;17.50;99.90;;;;;;5093233;28;20151;-83
2022/10/02 09:12:46;;;;;;;1.00;1.00;;;17.60;99.90;;;;;;5093228;28;20198;-83
2022/10/02 09:15:44;;;;;;;1.20;1.20;;;17.60;99.90;;;;;;5093433;28;20174;-83
2022/10/02 09:18:43;;;;;;;0.90;0.90;;;17.70;99.90;;;;;;5093160;28;20647;-82
2022/10/02 09:21:39;;;;;;;1.23;1.10;;;17.80;99.90;;;;;;5093383;28;20691;-83
2022/10/02 09:24:46;;;;;;;1.17;1.17;;;17.90;99.90;;;;;;5092776;28;20188;-83
2022/10/02 09:27:36;;;;;;;4.73;3.40;;;18.10;99.90;;;;;;5072249;28;20518;-82
2022/10/02 09:30:14;;;;;;;1.40;1.30;;;18.10;99.90;;;;;;5093050;28;20658;-82
2022/10/02 09:33:07;;;;;;;2.03;1.00;;;18.30;99.90;;;;;;5092755;28;20202;-84
2022/10/02 09:36:00;;;;;;;1.57;0.93;;;18.40;99.90;;;;;;5092577;28;20166;-82
2022/10/02 09:39:03;;;;;;;1.37;1.20;;;18.60;99.90;;;;;;5092312;28;20510;-80
2022/10/02 09:41:48;;;;;;;1.27;1.00;;;18.70;99.90;;;;;;5092265;28;20188;-83
2022/10/02 09:44:57;;;;;;;1.30;1.00;;;18.80;99.90;;;;;;5092324;28;20197;-82
2022/10/02 09:47:25;;;;;;;2.07;1.07;;;18.80;99.90;;;;;;5092252;28;20158;-82
2022/10/02 09:50:12;;;;;;;2.27;1.00;;;18.80;99.90;;;;;;5092183;28;20178;-85
2022/10/02 09:53:00;;;;;;;1.30;1.20;;;18.80;99.90;;;;;;5072058;28;20218;-86
2022/10/02 09:55:48;;;;;;;1.33;1.00;;;18.80;99.90;;;;;;5073568;28;20195;-84
2022/10/02 09:58:23;;;;;;;0.90;0.90;;;18.80;99.90;;;;;;5077355;28;20164;-83
2022/10/02 10:01:07;;;;;;;0.80;0.80;;;18.90;99.90;;;;;;5076415;28;20241;-84
2022/10/02 10:03:51;;;;;;;1.87;0.90;;;18.90;99.90;;;;;;5074583;28;20262;-83
2022/10/02 10:06:27;;;;;;;0.80;0.80;;;18.70;99.90;;;;;;5071402;28;20167;-82
2022/10/02 10:09:14;;;;;;;0.73;0.73;;;18.70;99.90;;;;;;5071785;28;20170;-82
2022/10/02 10:11:40;;;;;;;0.73;0.73;;;18.70;99.90;;;;;;5071887;28;20229;-82
2022/10/02 10:14:35;;;;;;;0.70;0.70;;;18.70;99.90;;;;;;5071648;28;20167;-82
2022/10/02 10:17:29;;;;;;;1.60;0.63;;;18.70;99.90;;;;;;5071553;28;20182;-84
2022/10/02 10:20:26;;;;;;;1.80;0.90;;;18.70;99.90;;;;;;5072206;28;20164;-85
2022/10/02 10:23:11;;;;;;;1.07;1.00;;;18.70;99.90;;;;;;5077604;28;20179;-85
2022/10/02 10:25:49;;;;;;;1.10;1.07;;;18.70;99.90;;;;;;5091902;28;20166;-84
2022/10/02 10:28:32;;;;;;;1.07;1.07;;;18.70;99.90;;;;;;5086410;28;20167;-83
2022/10/02 10:31:10;;;;;;;1.30;1.30;;;18.60;99.90;;;;;;5092251;28;20186;-83
2022/10/02 10:33:59;;;;;;;1.67;1.17;;;18.50;99.90;;;;;;5107606;28;20170;-84
2022/10/02 10:40:13;;;;;;;2.40;1.27;;;18.40;99.90;;;;;;5095476;28;20197;-83
2022/10/02 10:42:58;;;;;;;1.40;1.40;;;18.20;99.90;;;;;;5094024;28;20166;-84
2022/10/02 10:46:05;;;;;;;4.53;1.57;;;18.00;99.90;;;;;;5091820;28;20918;-83
2022/10/02 10:48:47;;;;;;;2.00;1.53;;;18.00;99.90;;;;;;5092152;28;20178;-84
2022/10/02 10:51:21;;;;;;;3.03;1.50;;;17.90;99.90;;;;;;5105421;28;20210;-83
2022/10/02 10:54:07;;;;;;;1.33;1.30;;;17.70;99.90;;;;;;5113901;28;20214;-84
2022/10/02 10:56:53;;;;;;;1.60;1.60;;;17.70;99.90;;;;;;5112979;28;20520;-84
2022/10/02 10:59:21;;;;;;;2.57;1.90;;;17.60;99.90;;;;;;5113365;28;20173;-83
2022/10/02 11:02:30;;;;;;;1.80;1.50;;;17.40;99.90;;;;;;5094622;28;20219;-83
2022/10/02 11:05:17;;;;;;;1.47;1.47;;;17.30;99.90;;;;;;5112668;28;20174;-84
2022/10/02 11:08:20;;;;;;;1.90;1.80;;;17.30;99.90;;;;;;5112747;28;20173;-84
2022/10/02 11:10:55;;;;;;;3.67;3.40;;;17.20;99.90;;;;;;5094660;28;20200;-84
2022/10/02 11:13:34;;;;;;;3.40;2.40;;;17.20;99.90;;;;;;5094486;28;20264;-83
2022/10/02 11:16:13;;;;;;;10.47;4.83;;;17.20;99.90;;;;;;5112745;28;20207;-83
2022/10/02 11:18:58;;;;;;;3.20;2.57;;;17.10;99.90;;;;;;5111818;28;20177;-83
2022/10/02 11:21:38;;;;;;;2.47;2.37;;;17.10;99.90;;;;;;5113851;28;20617;-83
2022/10/02 11:24:22;;;;;;;2.60;2.40;;;17.10;99.90;;;;;;5094676;28;20177;-83
2022/10/02 11:26:48;;;;;;;2.50;2.40;;;17.10;99.90;;;;;;5112034;28;20628;-83
2022/10/02 11:29:41;;;;;;;4.73;2.70;;;17.10;99.90;;;;;;5111298;28;20174;-83
2022/10/02 11:32:18;;;;;;;2.40;2.20;;;17.20;99.90;;;;;;5092695;28;20340;-83
2022/10/02 11:35:11;;;;;;;3.60;3.40;;;17.20;99.90;;;;;;5092901;28;20173;-84
2022/10/02 11:38:05;;;;;;;3.30;2.70;;;17.20;99.90;;;;;;5111230;28;20162;-84
2022/10/02 11:40:45;;;;;;;2.60;2.27;;;17.30;99.90;;;;;;5111225;28;20158;-84
2022/10/02 11:43:31;;;;;;;2.30;2.20;;;17.20;99.90;;;;;;5111198;28;20157;-84
2022/10/02 11:45:58;;;;;;;7.10;5.37;;;17.20;99.90;;;;;;5110898;28;20166;-85
2022/10/02 11:49:05;;;;;;;3.10;2.43;;;17.30;99.90;;;;;;5114038;28;20197;-84
2022/10/02 11:51:45;;;;;;;2.70;2.07;;;17.40;99.90;;;;;;5098870;28;20232;-84
2022/10/02 11:54:17;;;;;;;1.90;1.80;;;17.50;99.90;;;;;;5112109;28;20158;-84
2022/10/02 11:57:04;;;;;;;2.30;2.10;;;17.30;99.90;;;;;;5092826;28;20177;-85
2022/10/02 11:59:50;;;;;;;2.40;2.00;;;17.40;99.90;;;;;;5111818;28;20637;-85
2022/10/02 12:02:37;;;;;;;2.30;1.90;;;17.60;99.90;;;;;;5109451;28;20169;-84
2022/10/02 12:05:21;;;;;;;6.43;5.53;;;17.70;99.90;;;;;;5111633;28;20177;-84
2022/10/02 12:08:09;;;;;;;2.73;2.20;;;17.80;99.90;;;;;;5112678;28;20169;-83
2022/10/02 12:10:57;;;;;;;3.67;2.27;;;17.80;99.90;;;;;;5123476;28;20157;-83
2022/10/02 12:13:47;;;;;;;1.93;1.83;;;17.80;99.90;;;;;;5130071;28;20177;-85
2022/10/02 12:16:20;;;;;;;1.80;1.70;;;17.90;99.90;;;;;;5135048;28;20142;-85
2022/10/02 12:19:25;;;;;;;1.70;1.60;;;17.90;99.90;;;;;;5127700;28;20163;-84
2022/10/02 12:28:53;;;;;;;2.53;1.30;;;18.10;99.90;;;;;;5009733;28;20706;-85
2022/10/02 12:31:49;;;;;;;1.60;1.50;;;18.20;99.90;;;;;;4995779;28;20212;-84
2022/10/02 12:34:26;;;;;;;1.43;1.33;;;18.30;99.90;;;;;;5012302;28;20193;-84
2022/10/02 12:37:21;;;;;;;1.67;1.30;;;18.50;99.90;;;;;;4995740;28;20181;-84
2022/10/02 12:40:06;;;;;;;5.33;1.77;;;18.60;99.90;;;;;;4994103;28;20181;-85
2022/10/02 12:43:04;;;;;;;2.20;2.00;;;18.70;99.90;;;;;;4997808;28;20584;-85
2022/10/02 12:46:06;;;;;;;1.63;1.60;;;18.70;99.90;;;;;;4997262;28;20280;-85
2022/10/02 12:48:59;;;;;;;2.47;1.60;;;18.70;99.90;;;;;;5011872;28;20212;-85
2022/10/02 12:51:34;;;;;;;1.60;1.60;;;18.60;99.90;;;;;;5016334;28;20240;-84
2022/10/02 12:54:43;;;;;;;2.30;1.80;;;18.50;99.90;;;;;;5013213;28;20180;-85
2022/10/02 13:00:15;;;;;;;2.90;1.80;;;18.40;99.90;;;;;;5032220;28;20215;-82
2022/10/02 13:03:04;;;;;;;1.83;1.83;;;18.30;99.90;;;;;;5031697;28;20631;-83
2022/10/02 13:05:39;;;;;;;1.60;1.60;;;18.20;99.90;;;;;;5031236;28;20180;-84
2022/10/02 13:08:31;;;;;;;1.30;1.20;;;18.20;99.90;;;;;;5030955;28;20272;-84
2022/10/02 13:10:59;;;;;;;1.60;1.50;;;18.20;99.90;;;;;;5032033;28;20201;-83
2022/10/02 13:13:52;;;;;;;1.33;1.33;;;18.20;99.90;;;;;;5031722;28;20251;-84
2022/10/02 13:16:51;;;;;;;1.80;1.50;;;18.20;99.90;;;;;;5030832;28;20165;-84
2022/10/02 13:19:17;;;;;;;1.50;1.50;;;18.10;99.90;;;;;;5029252;28;20246;-84
